Time;durP1;ratioP1;P1;durP2;ratioP2;P2;SDS_P1;SDS_P2;PMS_P1;PMS_P2;Temp;Humidity;BMP_temperature;BMP_pressure;BME280_temperature;BME280_humidity;BME280_pressure;Samples;Min_cycle;Max_cycle;Signal;HPM_P1;HPM_P2
2021/12/23 00:02:06;;;;;;;39.40;27.93;;;-4.40;99.90;;;;;;5048416;28;20444;-77
2021/12/23 00:04:33;;;;;;;42.50;29.73;;;-4.40;99.90;;;;;;5041818;28;20474;-76
2021/12/23 00:07:00;;;;;;;35.30;27.83;;;-4.40;99.90;;;;;;5046546;28;20809;-77
2021/12/23 00:09:45;;;;;;;36.63;27.67;;;-4.40;99.90;;;;;;5047897;28;20437;-77
2021/12/23 00:12:14;;;;;;;37.97;27.47;;;-4.50;99.90;;;;;;5051672;28;20444;-77
2021/12/23 00:14:40;;;;;;;35.37;28.10;;;-4.50;99.90;;;;;;5044180;28;20464;-76
2021/12/23 00:17:20;;;;;;;42.50;29.20;;;-4.50;99.90;;;;;;5041870;28;20451;-76
2021/12/23 00:19:59;;;;;;;41.17;29.30;;;-4.50;99.90;;;;;;5051683;28;20453;-76
2021/12/23 00:25:10;;;;;;;41.43;29.53;;;-4.50;99.90;;;;;;5042948;28;20463;-76
2021/12/23 00:27:39;;;;;;;36.23;27.17;;;-4.60;99.90;;;;;;5049019;28;20455;-76
2021/12/23 00:30:07;;;;;;;38.13;27.80;;;-4.70;99.90;;;;;;5044189;28;20488;-76
2021/12/23 00:32:34;;;;;;;39.43;28.70;;;-4.80;99.90;;;;;;5048758;28;20463;-77
2021/12/23 00:35:01;;;;;;;39.20;29.77;;;-4.80;99.90;;;;;;5045916;28;20871;-76
2021/12/23 00:37:35;;;;;;;42.47;29.10;;;-4.90;99.90;;;;;;5041041;28;20570;-76
2021/12/23 00:40:03;;;;;;;44.07;28.70;;;-4.90;99.90;;;;;;5048278;28;20785;-76
2021/12/23 00:42:31;;;;;;;36.33;26.87;;;-4.90;99.90;;;;;;5043792;28;20455;-76
2021/12/23 00:44:59;;;;;;;41.40;28.73;;;-4.80;99.90;;;;;;5049034;28;20454;-76
2021/12/23 00:47:26;;;;;;;39.97;29.73;;;-4.90;99.90;;;;;;5044723;28;21008;-76
2021/12/23 00:49:53;;;;;;;44.57;29.57;;;-5.00;99.90;;;;;;5049691;28;20473;-76
2021/12/23 00:52:27;;;;;;;40.70;28.17;;;-5.00;99.90;;;;;;5045722;28;20829;-76
2021/12/23 00:54:54;;;;;;;43.43;29.80;;;-5.00;99.90;;;;;;5048891;28;20474;-76
2021/12/23 00:57:27;;;;;;;38.60;28.53;;;-5.00;99.90;;;;;;5044471;28;20457;-76
2021/12/23 00:59:54;;;;;;;38.00;28.67;;;-5.10;99.90;;;;;;5046630;28;20434;-76
2021/12/23 01:02:25;;;;;;;43.07;29.90;;;-5.00;99.90;;;;;;5046486;28;20442;-77
2021/12/23 01:04:52;;;;;;;40.03;28.07;;;-5.00;99.90;;;;;;5045813;28;20468;-76
2021/12/23 01:07:19;;;;;;;40.93;30.20;;;-5.10;99.90;;;;;;5049046;28;20446;-76
2021/12/23 01:09:46;;;;;;;41.83;30.63;;;-5.00;99.90;;;;;;5045499;28;20446;-76
2021/12/23 01:12:16;;;;;;;46.97;30.50;;;-5.00;99.90;;;;;;5050212;28;20445;-76
2021/12/23 01:14:54;;;;;;;43.97;30.60;;;-4.90;99.90;;;;;;5041337;28;20566;-76
2021/12/23 01:17:31;;;;;;;42.67;29.40;;;-4.90;99.90;;;;;;5042661;28;20839;-76
2021/12/23 01:20:00;;;;;;;43.73;30.47;;;-4.90;99.90;;;;;;5050229;28;20962;-76
2021/12/23 01:22:27;;;;;;;44.40;30.83;;;-4.90;99.90;;;;;;5047720;28;20730;-76
2021/12/23 01:24:54;;;;;;;41.93;30.67;;;-4.90;99.90;;;;;;5044037;28;20458;-76
2021/12/23 01:27:21;;;;;;;45.10;30.43;;;-4.80;99.90;;;;;;5045652;28;20451;-76
2021/12/23 01:29:48;;;;;;;46.10;31.27;;;-4.80;99.90;;;;;;5045568;28;20961;-76
2021/12/23 01:32:15;;;;;;;39.43;28.27;;;-4.80;99.90;;;;;;5047683;28;20434;-76
2021/12/23 01:34:43;;;;;;;41.13;30.07;;;-4.80;99.90;;;;;;5044810;28;20485;-76
2021/12/23 01:37:10;;;;;;;45.93;32.10;;;-4.70;99.90;;;;;;5047804;28;20455;-77
2021/12/23 01:39:37;;;;;;;40.80;29.17;;;-4.70;99.90;;;;;;5045940;28;20779;-76
2021/12/23 01:42:04;;;;;;;38.07;29.33;;;-4.70;99.90;;;;;;5041397;28;20446;-76
2021/12/23 01:44:32;;;;;;;38.87;27.37;;;-4.70;99.90;;;;;;5047843;28;20460;-77
2021/12/23 01:46:59;;;;;;;36.53;28.00;;;-4.70;99.90;;;;;;5044554;28;20499;-76
2021/12/23 01:49:25;;;;;;;42.13;29.73;;;-4.60;99.90;;;;;;5048216;28;20436;-77
2021/12/23 01:51:54;;;;;;;38.93;28.80;;;-4.50;99.90;;;;;;5044759;28;20474;-77
2021/12/23 01:54:21;;;;;;;37.73;27.83;;;-4.50;99.90;;;;;;5047716;28;20472;-76
2021/12/23 01:56:48;;;;;;;35.20;26.63;;;-4.40;99.90;;;;;;5046592;28;20824;-76
2021/12/23 01:59:15;;;;;;;37.77;27.47;;;-4.30;99.90;;;;;;5042461;28;20564;-76
2021/12/23 02:01:42;;;;;;;36.60;28.00;;;-4.20;99.90;;;;;;5048681;28;20434;-77
2021/12/23 02:04:09;;;;;;;34.47;25.97;;;-4.20;99.90;;;;;;5048069;28;20541;-76
2021/12/23 02:06:36;;;;;;;35.30;27.67;;;-4.20;99.90;;;;;;5044332;28;20436;-78
2021/12/23 02:09:04;;;;;;;40.00;28.13;;;-4.10;99.90;;;;;;5042592;28;20445;-77
2021/12/23 02:11:31;;;;;;;37.33;27.87;;;-4.10;99.90;;;;;;5047161;28;21032;-75
2021/12/23 02:13:58;;;;;;;37.87;26.63;;;-4.10;99.90;;;;;;5046119;28;20535;-77
2021/12/23 02:16:25;;;;;;;34.33;26.00;;;-4.00;99.90;;;;;;5044585;28;20474;-76
2021/12/23 02:18:52;;;;;;;36.33;26.83;;;-4.00;99.90;;;;;;5047155;28;20460;-76
2021/12/23 02:21:20;;;;;;;34.47;26.80;;;-4.00;99.90;;;;;;5049394;28;20838;-76
2021/12/23 02:23:47;;;;;;;33.43;26.07;;;-4.00;99.90;;;;;;5051494;28;20456;-76
2021/12/23 02:26:14;;;;;;;36.93;26.73;;;-4.00;99.90;;;;;;5051585;28;20440;-77
2021/12/23 02:28:41;;;;;;;38.83;27.40;;;-4.00;99.90;;;;;;5046694;28;20449;-76
2021/12/23 02:31:08;;;;;;;38.30;26.40;;;-4.00;99.90;;;;;;5047275;28;20476;-77
2021/12/23 02:33:35;;;;;;;36.23;27.07;;;-4.10;99.90;;;;;;5069777;22;20471;-79
2021/12/23 02:36:02;;;;;;;39.30;27.83;;;-4.10;99.90;;;;;;5019930;28;20457;-80
2021/12/23 02:38:31;;;;;;;39.27;27.43;;;-4.10;99.90;;;;;;5010265;28;20453;-79
2021/12/23 02:40:58;;;;;;;40.80;27.20;;;-4.10;99.90;;;;;;5016484;28;20453;-80
2021/12/23 02:43:27;;;;;;;37.23;25.37;;;-4.10;99.90;;;;;;5023535;28;20961;-80
2021/12/23 02:45:56;;;;;;;39.17;26.67;;;-4.10;99.90;;;;;;5020250;28;20744;-80
2021/12/23 02:48:26;;;;;;;33.93;25.93;;;-4.00;99.90;;;;;;5023027;28;20427;-80
2021/12/23 02:50:56;;;;;;;31.23;25.07;;;-4.00;99.90;;;;;;5020077;28;20486;-80
2021/12/23 02:53:23;;;;;;;40.13;27.60;;;-4.00;99.90;;;;;;5024950;28;20856;-80
2021/12/23 02:55:54;;;;;;;38.43;25.77;;;-4.00;99.90;;;;;;5024081;28;20963;-80
2021/12/23 02:58:20;;;;;;;39.70;28.23;;;-4.00;99.90;;;;;;5019841;28;20450;-81
2021/12/23 03:00:48;;;;;;;36.27;26.67;;;-4.00;99.90;;;;;;5022251;28;20439;-78
2021/12/23 03:03:15;;;;;;;38.80;26.67;;;-4.00;99.90;;;;;;5017284;28;20497;-80
2021/12/23 03:05:47;;;;;;;35.43;26.63;;;-4.00;99.90;;;;;;5024983;28;20466;-79
2021/12/23 03:08:14;;;;;;;40.03;26.40;;;-4.00;99.90;;;;;;5020847;28;20462;-80
2021/12/23 03:10:41;;;;;;;33.30;25.70;;;-4.00;99.90;;;;;;5022583;28;20471;-81
2021/12/23 03:13:09;;;;;;;38.97;26.17;;;-4.00;99.90;;;;;;5045866;28;20441;-79
2021/12/23 03:15:36;;;;;;;37.90;27.03;;;-4.00;99.90;;;;;;5022124;28;20466;-79
2021/12/23 03:18:03;;;;;;;30.83;25.27;;;-4.10;99.90;;;;;;5023811;28;20456;-80
2021/12/23 03:20:30;;;;;;;33.43;26.13;;;-4.10;99.90;;;;;;5020964;28;20839;-79
2021/12/23 03:22:56;;;;;;;35.20;25.33;;;-4.00;99.90;;;;;;5021907;28;20839;-81
2021/12/23 03:25:24;;;;;;;34.07;25.87;;;-4.00;99.90;;;;;;5018089;28;20461;-80
2021/12/23 03:27:50;;;;;;;37.23;25.93;;;-4.10;99.90;;;;;;5023826;28;20452;-80
2021/12/23 03:30:19;;;;;;;37.50;27.13;;;-4.10;99.90;;;;;;5019031;28;20870;-81
2021/12/23 03:32:46;;;;;;;34.50;25.93;;;-4.10;99.90;;;;;;5029441;28;20465;-81
2021/12/23 03:35:12;;;;;;;32.47;26.27;;;-4.00;99.90;;;;;;5028014;28;20991;-81
2021/12/23 03:37:39;;;;;;;33.67;25.93;;;-4.10;99.90;;;;;;5026272;28;20457;-79
2021/12/23 03:40:08;;;;;;;33.67;26.10;;;-4.00;99.90;;;;;;5023938;28;20446;-79
2021/12/23 03:42:35;;;;;;;38.27;26.00;;;-4.00;99.90;;;;;;5016396;28;20449;-81
2021/12/23 03:45:02;;;;;;;32.57;26.30;;;-4.00;99.90;;;;;;5019821;28;20476;-81
2021/12/23 03:47:30;;;;;;;32.00;25.10;;;-4.00;99.90;;;;;;5018103;28;20453;-80
2021/12/23 03:49:57;;;;;;;32.07;24.53;;;-4.00;99.90;;;;;;5022001;28;20446;-81
2021/12/23 03:52:24;;;;;;;33.77;25.57;;;-3.90;99.90;;;;;;5016838;28;20500;-82
2021/12/23 03:54:51;;;;;;;34.37;26.87;;;-3.90;99.90;;;;;;5018576;28;20455;-80
2021/12/23 03:57:18;;;;;;;33.73;25.20;;;-3.90;99.90;;;;;;5019230;28;20811;-81
2021/12/23 03:59:45;;;;;;;31.67;24.10;;;-3.80;99.90;;;;;;5027866;28;20839;-80
2021/12/23 04:02:12;;;;;;;36.00;25.03;;;-3.80;99.90;;;;;;5024130;28;20979;-80
2021/12/23 04:04:40;;;;;;;33.00;25.77;;;-3.80;99.90;;;;;;5025727;28;20463;-80
2021/12/23 04:07:07;;;;;;;32.83;24.40;;;-3.80;99.90;;;;;;5029213;28;20748;-80
2021/12/23 04:09:34;;;;;;;34.47;26.10;;;-3.80;99.90;;;;;;5025547;28;20438;-81
2021/12/23 04:12:01;;;;;;;33.00;25.50;;;-3.80;99.90;;;;;;5021562;28;20830;-78
2021/12/23 04:14:27;;;;;;;33.23;24.20;;;-3.80;99.90;;;;;;5017963;28;20471;-82
2021/12/23 04:16:54;;;;;;;30.80;24.03;;;-3.80;99.90;;;;;;5023819;28;20450;-83
2021/12/23 04:19:27;;;;;;;35.10;25.87;;;-3.80;99.90;;;;;;5025393;28;20826;-82
2021/12/23 04:21:57;;;;;;;34.13;26.23;;;-3.90;99.90;;;;;;5024660;28;20876;-82
2021/12/23 04:24:24;;;;;;;38.63;25.57;;;-4.00;99.90;;;;;;5019106;28;20477;-81
2021/12/23 04:26:51;;;;;;;33.60;25.43;;;-4.00;99.90;;;;;;5026119;28;20458;-81
2021/12/23 04:29:19;;;;;;;33.93;26.03;;;-3.90;99.90;;;;;;5017559;28;20834;-82
2021/12/23 04:31:46;;;;;;;33.57;25.77;;;-3.90;99.90;;;;;;5024099;28;20842;-81
2021/12/23 04:34:13;;;;;;;34.30;25.20;;;-3.90;99.90;;;;;;5024259;28;20473;-81
2021/12/23 04:36:40;;;;;;;29.00;24.13;;;-3.90;99.90;;;;;;5023392;28;20459;-80
2021/12/23 04:39:08;;;;;;;31.27;23.57;;;-3.90;99.90;;;;;;5024044;28;20451;-80
2021/12/23 04:41:36;;;;;;;34.83;24.50;;;-3.80;99.90;;;;;;5015140;28;20477;-80
2021/12/23 04:44:02;;;;;;;34.20;25.87;;;-3.70;99.90;;;;;;5022683;28;20478;-81
2021/12/23 04:46:29;;;;;;;38.67;27.33;;;-3.70;99.90;;;;;;5023495;28;20446;-80
2021/12/23 04:48:56;;;;;;;37.53;27.77;;;-3.70;99.90;;;;;;5023358;28;20462;-80
2021/12/23 04:51:23;;;;;;;31.60;25.23;;;-3.70;99.90;;;;;;5026499;28;20475;-81
2021/12/23 04:53:50;;;;;;;36.17;26.43;;;-3.70;99.90;;;;;;5024068;28;20831;-80
2021/12/23 04:56:19;;;;;;;34.83;26.37;;;-3.70;99.90;;;;;;5021912;28;20970;-81
2021/12/23 04:58:46;;;;;;;35.27;26.40;;;-3.70;99.90;;;;;;5027819;28;20440;-81
2021/12/23 05:01:19;;;;;;;38.53;28.63;;;-3.80;99.90;;;;;;5020298;28;20451;-81
2021/12/23 05:03:48;;;;;;;41.90;28.13;;;-3.80;99.90;;;;;;5021827;28;20454;-81
2021/12/23 05:06:16;;;;;;;38.73;28.50;;;-3.90;99.90;;;;;;5024113;28;20816;-81
2021/12/23 05:08:43;;;;;;;39.53;27.33;;;-4.00;99.90;;;;;;5024097;28;20440;-81
2021/12/23 05:11:10;;;;;;;39.73;28.10;;;-4.00;99.90;;;;;;5025298;28;20474;-81
2021/12/23 05:13:38;;;;;;;35.97;27.97;;;-4.00;99.90;;;;;;5025993;28;20450;-81
2021/12/23 05:16:05;;;;;;;36.50;27.43;;;-4.00;99.90;;;;;;5020437;28;20443;-81
2021/12/23 05:18:32;;;;;;;33.60;24.97;;;-4.10;99.90;;;;;;5022194;28;20506;-81
2021/12/23 05:20:59;;;;;;;36.00;27.07;;;-4.10;99.90;;;;;;5022834;28;20444;-81
2021/12/23 05:23:26;;;;;;;36.40;27.80;;;-4.10;99.90;;;;;;5024883;28;20444;-81
2021/12/23 05:25:53;;;;;;;32.10;26.27;;;-4.10;99.90;;;;;;5022063;28;20464;-81
2021/12/23 05:28:20;;;;;;;37.77;28.13;;;-4.10;99.90;;;;;;5024051;28;20449;-82
2021/12/23 05:30:48;;;;;;;36.83;26.80;;;-4.10;99.90;;;;;;5022556;28;20447;-81
2021/12/23 05:33:15;;;;;;;35.17;26.37;;;-4.10;99.90;;;;;;5033092;28;20581;-81
2021/12/23 05:35:42;;;;;;;39.20;28.20;;;-4.20;99.90;;;;;;5030505;28;20483;-80
2021/12/23 05:38:09;;;;;;;38.57;26.43;;;-4.30;99.90;;;;;;5022363;28;20454;-81
2021/12/23 05:40:36;;;;;;;37.63;26.50;;;-4.30;99.90;;;;;;5024792;28;20538;-81
2021/12/23 05:43:04;;;;;;;37.20;25.80;;;-4.30;99.90;;;;;;5021696;28;20983;-81
2021/12/23 05:45:31;;;;;;;39.53;27.83;;;-4.30;99.90;;;;;;5025081;28;20471;-82
2021/12/23 05:47:59;;;;;;;40.77;28.50;;;-4.40;99.90;;;;;;5025678;28;20442;-81
2021/12/23 05:50:26;;;;;;;38.57;27.50;;;-4.40;99.90;;;;;;5017585;28;20448;-81
2021/12/23 05:52:54;;;;;;;35.23;25.73;;;-4.40;99.90;;;;;;5022278;28;20469;-82
2021/12/23 05:55:22;;;;;;;36.73;26.97;;;-4.40;99.90;;;;;;5023368;28;20842;-81
2021/12/23 05:57:50;;;;;;;33.13;26.67;;;-4.50;99.90;;;;;;5022272;28;20464;-83
2021/12/23 06:00:21;;;;;;;39.80;27.53;;;-4.50;99.90;;;;;;5027624;28;20479;-82
2021/12/23 06:02:49;;;;;;;37.07;27.13;;;-4.60;99.90;;;;;;5027512;28;20528;-82
2021/12/23 06:05:17;;;;;;;40.47;29.27;;;-4.60;99.90;;;;;;5023534;28;20475;-82
2021/12/23 06:07:45;;;;;;;40.53;28.13;;;-4.60;99.90;;;;;;5025443;28;20465;-82
2021/12/23 06:10:14;;;;;;;39.37;27.67;;;-4.60;99.90;;;;;;5028168;28;20441;-82
2021/12/23 06:12:41;;;;;;;39.93;27.13;;;-4.70;99.90;;;;;;5019409;28;20993;-82
2021/12/23 06:15:09;;;;;;;39.37;28.63;;;-4.70;99.90;;;;;;5026676;28;20468;-82
2021/12/23 06:17:37;;;;;;;37.93;26.87;;;-4.70;99.90;;;;;;5022965;28;20462;-81
2021/12/23 06:20:05;;;;;;;35.03;25.23;;;-4.70;99.90;;;;;;5024158;28;20440;-80
2021/12/23 06:22:35;;;;;;;39.60;27.17;;;-4.80;99.90;;;;;;5026568;28;20915;-81
2021/12/23 06:25:02;;;;;;;37.73;25.67;;;-4.80;99.90;;;;;;5024792;28;20550;-81
2021/12/23 06:27:29;;;;;;;35.60;25.97;;;-4.80;99.90;;;;;;5012922;28;20456;-81
2021/12/23 06:29:56;;;;;;;37.23;27.77;;;-4.80;99.90;;;;;;5027180;28;21014;-81
2021/12/23 06:32:24;;;;;;;38.90;27.53;;;-4.80;99.90;;;;;;5020715;28;20475;-81
2021/12/23 06:34:51;;;;;;;36.67;26.73;;;-4.80;99.90;;;;;;5019751;28;20484;-80
2021/12/23 06:37:18;;;;;;;38.77;25.50;;;-4.80;99.90;;;;;;5031883;28;20434;-82
2021/12/23 06:39:47;;;;;;;37.40;25.60;;;-4.80;99.90;;;;;;5026599;28;20464;-81
2021/12/23 06:42:16;;;;;;;36.50;27.47;;;-4.70;99.90;;;;;;5026263;28;20447;-80
2021/12/23 06:44:42;;;;;;;33.27;25.77;;;-4.70;99.90;;;;;;5029000;28;20503;-82
2021/12/23 06:47:10;;;;;;;32.20;25.00;;;-4.60;99.90;;;;;;5024890;28;20459;-82
2021/12/23 06:49:37;;;;;;;34.27;24.70;;;-4.60;99.90;;;;;;5027097;28;20890;-81
2021/12/23 06:52:05;;;;;;;33.03;24.57;;;-4.50;99.90;;;;;;5025393;28;20473;-81
2021/12/23 06:54:32;;;;;;;30.97;24.10;;;-4.40;99.90;;;;;;5030602;28;20496;-82
2021/12/23 06:57:01;;;;;;;32.37;25.67;;;-4.30;99.90;;;;;;5030489;28;20462;-81
2021/12/23 06:59:29;;;;;;;33.20;25.53;;;-4.30;99.90;;;;;;5016964;28;20523;-81
2021/12/23 07:01:56;;;;;;;36.90;27.43;;;-4.20;99.90;;;;;;5030607;28;20458;-81
2021/12/23 07:04:28;;;;;;;42.07;27.33;;;-4.20;99.90;;;;;;5029801;28;20485;-81
2021/12/23 07:07:07;;;;;;;39.33;27.23;;;-4.10;99.90;;;;;;5030264;28;20461;-82
2021/12/23 07:09:35;;;;;;;28.87;24.17;;;-3.90;99.90;;;;;;5020022;28;20960;-82
2021/12/23 07:12:04;;;;;;;36.00;26.70;;;-3.80;99.90;;;;;;5027402;28;20901;-81
2021/12/23 07:14:32;;;;;;;34.10;25.00;;;-3.80;99.90;;;;;;5019146;28;20987;-81
2021/12/23 07:16:59;;;;;;;30.90;24.33;;;-3.90;99.90;;;;;;5029398;28;20452;-81
2021/12/23 07:19:26;;;;;;;34.30;26.07;;;-3.90;99.90;;;;;;5032511;28;20444;-82
2021/12/23 07:21:54;;;;;;;32.53;25.20;;;-3.90;99.90;;;;;;5025812;28;20850;-81
2021/12/23 07:24:21;;;;;;;33.80;26.33;;;-3.90;99.90;;;;;;5030178;28;20471;-81
2021/12/23 07:26:49;;;;;;;32.43;24.87;;;-3.90;99.90;;;;;;5026178;28;20551;-82
2021/12/23 07:29:18;;;;;;;33.37;24.93;;;-3.90;99.90;;;;;;5029941;28;20555;-82
2021/12/23 07:31:45;;;;;;;34.43;25.20;;;-3.90;99.90;;;;;;5030926;28;20466;-80
2021/12/23 07:34:12;;;;;;;30.13;25.17;;;-3.90;99.90;;;;;;5028107;28;20474;-81
2021/12/23 07:36:41;;;;;;;36.57;26.63;;;-3.90;99.90;;;;;;5030471;28;20451;-80
2021/12/23 07:39:08;;;;;;;32.30;24.60;;;-3.80;99.90;;;;;;5029247;28;20457;-81
2021/12/23 07:41:36;;;;;;;32.93;25.07;;;-3.80;99.90;;;;;;5030853;28;20525;-82
2021/12/23 07:44:07;;;;;;;39.27;26.30;;;-3.80;99.90;;;;;;5030825;28;20500;-81
2021/12/23 07:46:38;;;;;;;29.40;24.33;;;-3.70;99.90;;;;;;5032905;28;20970;-81
2021/12/23 07:49:06;;;;;;;32.73;24.97;;;-3.70;99.90;;;;;;5031098;28;20509;-81
2021/12/23 07:51:36;;;;;;;30.80;23.77;;;-3.60;99.90;;;;;;5028630;28;20510;-82
2021/12/23 07:54:03;;;;;;;34.07;24.13;;;-3.50;99.90;;;;;;5029867;28;20555;-81
2021/12/23 07:56:30;;;;;;;33.30;25.43;;;-3.50;99.90;;;;;;5029075;28;20541;-80
2021/12/23 07:58:58;;;;;;;28.83;23.93;;;-3.40;99.90;;;;;;5029620;28;20454;-78
2021/12/23 08:01:25;;;;;;;30.23;24.27;;;-3.40;99.90;;;;;;5033711;28;20481;-79
2021/12/23 08:03:54;;;;;;;30.00;24.17;;;-3.30;99.90;;;;;;5032545;28;20469;-79
2021/12/23 08:06:24;;;;;;;28.73;24.30;;;-3.30;99.90;;;;;;5026548;28;20439;-79
2021/12/23 08:08:51;;;;;;;29.90;25.20;;;-3.20;99.90;;;;;;5028017;28;20934;-78
2021/12/23 08:11:18;;;;;;;31.73;25.93;;;-3.30;99.90;;;;;;5036832;28;20440;-80
2021/12/23 08:13:45;;;;;;;28.93;23.93;;;-3.30;99.90;;;;;;5024187;28;20505;-80
2021/12/23 08:16:11;;;;;;;31.67;24.70;;;-3.30;99.90;;;;;;5023485;28;20468;-80
2021/12/23 08:18:38;;;;;;;33.97;25.53;;;-3.30;99.90;;;;;;5014046;28;20452;-79
2021/12/23 08:21:07;;;;;;;35.33;26.40;;;-3.20;99.90;;;;;;5018577;28;20456;-82
2021/12/23 08:23:34;;;;;;;34.20;26.03;;;-3.20;99.90;;;;;;5034420;28;20451;-79
2021/12/23 08:26:10;;;;;;;29.53;24.10;;;-3.10;99.90;;;;;;5037920;28;20519;-79
2021/12/23 08:28:37;;;;;;;31.23;24.13;;;-2.80;99.90;;;;;;5018709;28;20509;-77
2021/12/23 08:31:04;;;;;;;29.83;24.40;;;-2.60;99.90;;;;;;5017857;28;20439;-78
2021/12/23 08:33:31;;;;;;;32.03;25.27;;;-2.30;99.90;;;;;;5030975;28;20473;-79
2021/12/23 08:35:58;;;;;;;29.43;24.37;;;-1.90;99.90;;;;;;5034741;28;20456;-79
2021/12/23 08:38:27;;;;;;;28.47;23.10;;;-1.60;99.90;;;;;;5034554;28;20438;-79
2021/12/23 08:40:55;;;;;;;29.17;23.70;;;-1.40;99.90;;;;;;5012091;28;20429;-80
2021/12/23 08:43:22;;;;;;;27.40;23.33;;;-1.20;99.90;;;;;;5011990;28;20437;-79
2021/12/23 08:45:49;;;;;;;25.37;22.57;;;-1.10;99.90;;;;;;5011949;28;20460;-79
2021/12/23 08:48:16;;;;;;;27.60;23.47;;;-0.90;99.90;;;;;;5019816;28;20450;-79
2021/12/23 08:50:43;;;;;;;27.10;23.17;;;-0.90;99.90;;;;;;5031398;28;20450;-79
2021/12/23 08:53:10;;;;;;;25.80;23.10;;;-0.70;99.90;;;;;;5034068;28;20482;-79
2021/12/23 08:55:38;;;;;;;26.83;23.33;;;-0.70;99.90;;;;;;5032160;28;20477;-82
2021/12/23 08:58:05;;;;;;;24.37;21.77;;;-0.60;99.90;;;;;;5037533;28;20462;-79
2021/12/23 09:00:33;;;;;;;26.37;22.40;;;-0.60;99.90;;;;;;5032890;28;20454;-80
2021/12/23 09:03:00;;;;;;;25.77;22.80;;;-0.60;99.90;;;;;;5032868;28;20447;-79
2021/12/23 09:05:28;;;;;;;24.57;21.97;;;-0.60;99.90;;;;;;5019386;28;20450;-79
2021/12/23 09:07:55;;;;;;;25.13;22.43;;;-0.60;99.90;;;;;;5031902;28;20458;-79
2021/12/23 09:10:22;;;;;;;23.30;20.67;;;-0.50;99.90;;;;;;5036212;28;20451;-80
2021/12/23 09:12:51;;;;;;;25.83;22.90;;;-0.50;99.90;;;;;;5031211;28;20468;-80
2021/12/23 09:15:19;;;;;;;25.43;22.67;;;-0.50;99.90;;;;;;5029366;28;20463;-79
2021/12/23 09:17:47;;;;;;;25.13;22.43;;;-0.50;99.90;;;;;;5026656;28;20440;-79
2021/12/23 09:20:16;;;;;;;26.13;23.30;;;-0.40;99.90;;;;;;5027247;28;20449;-81
2021/12/23 09:22:43;;;;;;;28.77;22.10;;;-0.30;99.90;;;;;;5029724;28;20451;-80
2021/12/23 09:25:19;;;;;;;27.47;23.27;;;-0.20;99.90;;;;;;5024062;28;20455;-82
2021/12/23 09:27:58;;;;;;;28.37;23.07;;;-0.10;99.90;;;;;;5023583;28;20679;-83
2021/12/23 09:33:11;;;;;;;25.80;22.27;;;0.10;99.90;;;;;;5022593;28;20475;-82
2021/12/23 09:35:39;;;;;;;28.00;23.70;;;0.20;99.90;;;;;;5023466;28;21003;-82
2021/12/23 09:38:07;;;;;;;29.23;25.03;;;0.10;99.90;;;;;;5023359;28;20461;-82
2021/12/23 09:40:35;;;;;;;26.63;23.23;;;0.20;99.90;;;;;;5024462;28;20454;-82
2021/12/23 09:43:04;;;;;;;28.63;22.67;;;0.20;99.90;;;;;;5025683;28;20443;-82
2021/12/23 09:45:33;;;;;;;25.93;22.07;;;0.30;99.90;;;;;;5024448;28;20829;-82
2021/12/23 09:48:03;;;;;;;25.53;22.80;;;0.30;99.90;;;;;;5025229;28;20452;-83
2021/12/23 09:50:35;;;;;;;25.03;22.50;;;0.40;99.90;;;;;;5019895;28;20512;-83
2021/12/23 09:53:03;;;;;;;24.00;21.50;;;0.40;99.90;;;;;;5023212;28;20483;-83
2021/12/23 09:55:31;;;;;;;24.30;21.53;;;0.50;99.90;;;;;;5009462;28;20474;-83
2021/12/23 09:57:59;;;;;;;27.00;22.67;;;0.60;99.90;;;;;;5025889;28;20443;-82
2021/12/23 10:00:29;;;;;;;26.47;23.60;;;0.70;99.90;;;;;;5023769;28;20428;-81
2021/12/23 10:02:58;;;;;;;26.43;22.93;;;0.70;99.90;;;;;;5021702;28;21031;-82
2021/12/23 10:05:32;;;;;;;26.43;23.57;;;0.80;99.90;;;;;;5023949;28;20452;-82
2021/12/23 10:07:59;;;;;;;26.17;22.83;;;0.90;99.90;;;;;;5024169;28;20442;-84
2021/12/23 10:10:32;;;;;;;23.70;21.23;;;1.00;99.90;;;;;;5022407;28;20446;-84
2021/12/23 10:26:52;;;;;;;24.73;22.17;;;1.00;99.90;;;;;;5024557;28;20481;-84
2021/12/23 10:27:41;;;;;;;28.83;24.40;;;1.40;99.90;;;;;;5018279;28;20445;-82
2021/12/23 10:38:21;;;;;;;25.70;22.90;;;2.00;99.90;;;;;;5029601;28;20446;-82
2021/12/23 10:40:50;;;;;;;26.00;23.07;;;2.10;99.90;;;;;;5030323;28;20457;-82
2021/12/23 10:43:28;;;;;;;26.70;23.23;;;2.10;99.90;;;;;;5022851;28;20204;-82
2021/12/23 10:45:58;;;;;;;26.17;22.90;;;2.20;99.90;;;;;;5035229;28;20470;-84
2021/12/23 10:48:28;;;;;;;26.70;23.90;;;2.20;99.90;;;;;;5004627;28;20491;-84
2021/12/23 10:51:03;;;;;;;25.97;23.07;;;2.20;99.90;;;;;;5029577;28;20446;-85
2021/12/23 10:53:53;;;;;;;25.63;22.93;;;2.20;99.90;;;;;;5019639;28;20478;-84
2021/12/23 10:59:11;;;;;;;28.00;23.30;;;2.30;99.90;;;;;;5013650;28;20493;-83
2021/12/23 11:02:14;;;;;;;27.50;23.83;;;2.40;99.90;;;;;;5020670;28;20490;-81
2021/12/23 11:05:08;;;;;;;27.10;23.90;;;2.40;99.90;;;;;;5028589;28;20463;-82
2021/12/23 11:07:47;;;;;;;29.17;23.57;;;2.40;99.90;;;;;;5019949;28;20284;-82
2021/12/23 11:10:23;;;;;;;27.50;23.10;;;2.50;99.90;;;;;;5016519;28;20204;-81
2021/12/23 11:38:21;;;;;;;21.27;19.07;;;3.30;99.90;;;;;;4988977;28;20442;-83
2021/12/23 11:40:56;;;;;;;23.37;20.97;;;3.30;99.90;;;;;;5026160;28;20200;-83
2021/12/23 11:43:47;;;;;;;25.37;22.57;;;3.20;99.90;;;;;;5027563;28;20192;-82
2021/12/23 11:46:17;;;;;;;24.33;21.73;;;3.10;99.90;;;;;;5019879;28;20205;-83
2021/12/23 11:48:46;;;;;;;29.80;22.03;;;3.10;99.90;;;;;;5016154;28;20209;-82
2021/12/23 11:51:20;;;;;;;25.87;22.13;;;3.00;99.90;;;;;;5016234;28;20196;-83
2021/12/23 11:53:49;;;;;;;23.83;21.43;;;3.00;99.90;;;;;;5013732;28;20223;-83
2021/12/23 11:56:20;;;;;;;24.57;21.97;;;3.00;99.90;;;;;;5016414;28;20292;-83
2021/12/23 11:58:48;;;;;;;24.23;21.53;;;3.00;99.90;;;;;;5020457;28;20451;-82
2021/12/23 12:01:20;;;;;;;22.57;20.23;;;2.90;99.90;;;;;;5014602;28;20372;-83
2021/12/23 12:04:00;;;;;;;22.40;20.03;;;3.00;99.90;;;;;;5033437;28;20215;-83
2021/12/23 12:06:32;;;;;;;22.40;20.10;;;3.20;99.90;;;;;;5030957;28;20196;-82
2021/12/23 12:09:14;;;;;;;22.33;20.03;;;3.30;99.90;;;;;;5029599;28;20237;-82
2021/12/23 12:11:49;;;;;;;21.77;19.57;;;3.50;99.90;;;;;;5020273;28;20189;-83
2021/12/23 12:14:35;;;;;;;22.53;20.13;;;3.60;99.90;;;;;;5044425;28;20287;-82
2021/12/23 12:17:40;;;;;;;21.27;19.00;;;3.80;99.90;;;;;;5018590;28;20220;-80
2021/12/23 12:20:21;;;;;;;22.47;20.17;;;3.90;99.90;;;;;;5014238;28;20212;-80
2021/12/23 12:23:01;;;;;;;21.20;19.23;;;4.10;99.90;;;;;;5012252;28;20208;-81
2021/12/23 12:25:55;;;;;;;15.23;10.37;;;4.20;99.90;;;;;;5013946;28;20709;-83
2021/12/23 12:28:27;;;;;;;13.87;10.20;;;4.30;99.90;;;;;;5029942;28;20816;-83
2021/12/23 12:30:56;;;;;;;16.47;11.03;;;4.40;99.90;;;;;;5012722;28;20201;-83
2021/12/23 12:33:45;;;;;;;16.20;12.00;;;4.50;99.90;;;;;;5014688;28;20244;-83
2021/12/23 12:36:14;;;;;;;16.07;11.57;;;4.60;99.90;;;;;;5035671;28;20202;-84
2021/12/23 12:38:43;;;;;;;14.20;10.20;;;4.60;99.90;;;;;;5014414;28;20231;-83
2021/12/23 12:41:12;;;;;;;15.27;11.00;;;4.70;99.90;;;;;;5029519;28;20207;-83
2021/12/23 12:44:09;;;;;;;19.87;13.83;;;4.70;99.90;;;;;;5018882;28;20188;-81
2021/12/23 12:47:02;;;;;;;18.50;14.30;;;4.80;99.90;;;;;;5000583;28;20228;-82
2021/12/23 12:49:33;;;;;;;18.60;14.33;;;4.90;99.90;;;;;;5040913;28;20204;-81
2021/12/23 12:52:16;;;;;;;20.90;14.77;;;5.00;99.90;;;;;;5027498;28;20347;-83
2021/12/23 12:54:48;;;;;;;15.97;10.83;;;5.00;99.90;;;;;;5028240;28;20645;-82
2021/12/23 12:57:17;;;;;;;18.37;11.97;;;5.10;99.90;;;;;;5034635;28;20234;-80
2021/12/23 12:59:48;;;;;;;19.13;12.87;;;5.20;99.90;;;;;;5027924;28;20228;-82
2021/12/23 13:02:28;;;;;;;15.83;11.87;;;5.20;99.90;;;;;;5028241;28;20193;-82
2021/12/23 13:04:59;;;;;;;19.80;17.57;;;5.20;99.90;;;;;;5021901;28;20709;-82
2021/12/23 13:07:50;;;;;;;19.80;17.70;;;5.20;99.90;;;;;;5014379;28;20288;-83
2021/12/23 13:10:33;;;;;;;18.23;16.33;;;5.30;99.90;;;;;;5032833;28;20188;-84
2021/12/23 13:13:31;;;;;;;18.00;16.10;;;5.30;99.90;;;;;;5023574;28;20219;-82
2021/12/23 13:16:11;;;;;;;17.07;15.20;;;5.40;99.90;;;;;;5027027;28;20677;-81
2021/12/23 13:18:39;;;;;;;16.93;15.00;;;5.50;99.90;;;;;;5031964;28;20197;-82
2021/12/23 13:21:06;;;;;;;15.00;13.40;;;5.50;99.90;;;;;;5021589;28;20204;-83
2021/12/23 13:23:37;;;;;;;15.63;14.03;;;5.50;99.90;;;;;;5025301;28;20213;-84
2021/12/23 13:26:06;;;;;;;10.67;7.93;;;5.60;99.90;;;;;;5019836;28;20688;-81
2021/12/23 13:28:38;;;;;;;11.40;8.53;;;5.70;99.90;;;;;;5028139;28;20204;-78
2021/12/23 13:31:52;;;;;;;10.33;7.73;;;5.80;99.90;;;;;;5002508;28;20197;-81
2021/12/23 13:34:22;;;;;;;15.27;13.97;;;5.80;99.90;;;;;;5020297;28;20309;-79
2021/12/23 13:36:52;;;;;;;14.17;12.97;;;5.90;99.90;;;;;;5001852;28;20201;-79
2021/12/23 13:39:21;;;;;;;13.67;12.37;;;5.80;99.90;;;;;;5020381;28;20200;-80